sensor_id;sensor_type;location;lat;lon;timestamp;temperature;humidity
6822;DHT22;3449;48.728;8.968;2022-12-17T00:01:53;-6.60;99.90
6822;DHT22;3449;48.728;8.968;2022-12-17T00:04:39;-6.60;99.90
6822;DHT22;3449;48.728;8.968;2022-12-17T00:07:23;-6.60;99.90
6822;DHT22;3449;48.728;8.968;2022-12-17T00:10:08;-6.70;99.90
6822;DHT22;3449;48.728;8.968;2022-12-17T00:12:53;-6.70;99.90
6822;DHT22;3449;48.728;8.968;2022-12-17T00:15:37;-6.70;99.90
6822;DHT22;3449;48.728;8.968;2022-12-17T00:18:21;-6.80;99.90
6822;DHT22;3449;48.728;8.968;2022-12-17T00:21:08;-6.80;99.90
6822;DHT22;3449;48.728;8.968;2022-12-17T00:23:52;-6.80;99.90
6822;DHT22;3449;48.728;8.968;2022-12-17T00:26:37;-6.80;99.90
6822;DHT22;3449;48.728;8.968;2022-12-17T00:29:21;-6.90;99.90
6822;DHT22;3449;48.728;8.968;2022-12-17T00:32:06;-6.90;99.90
6822;DHT22;3449;48.728;8.968;2022-12-17T00:34:50;-6.90;99.90
6822;DHT22;3449;48.728;8.968;2022-12-17T00:37:39;-7.00;99.90
6822;DHT22;3449;48.728;8.968;2022-12-17T00:40:26;-7.00;99.90
6822;DHT22;3449;48.728;8.968;2022-12-17T00:43:12;-7.10;99.90
6822;DHT22;3449;48.728;8.968;2022-12-17T00:45:57;-7.10;99.90
6822;DHT22;3449;48.728;8.968;2022-12-17T00:48:42;-7.20;99.90
6822;DHT22;3449;48.728;8.968;2022-12-17T00:51:26;-7.20;99.90
6822;DHT22;3449;48.728;8.968;2022-12-17T00:54:12;-7.20;99.90
6822;DHT22;3449;48.728;8.968;2022-12-17T00:56:56;-7.20;99.90
6822;DHT22;3449;48.728;8.968;2022-12-17T00:59:41;-7.30;99.90
6822;DHT22;3449;48.728;8.968;2022-12-17T01:02:27;-7.30;99.90
6822;DHT22;3449;48.728;8.968;2022-12-17T01:05:12;-7.30;99.90
6822;DHT22;3449;48.728;8.968;2022-12-17T01:08:04;-7.40;99.90
6822;DHT22;3449;48.728;8.968;2022-12-17T01:10:50;-7.40;99.90
6822;DHT22;3449;48.728;8.968;2022-12-17T01:13:34;-7.40;99.90
6822;DHT22;3449;48.728;8.968;2022-12-17T01:16:18;-7.50;99.90
6822;DHT22;3449;48.728;8.968;2022-12-17T01:19:03;-7.50;99.90
6822;DHT22;3449;48.728;8.968;2022-12-17T01:21:47;-7.50;99.90
6822;DHT22;3449;48.728;8.968;2022-12-17T01:24:31;-7.50;99.90
6822;DHT22;3449;48.728;8.968;2022-12-17T01:27:16;-7.50;99.90
6822;DHT22;3449;48.728;8.968;2022-12-17T01:30:00;-7.50;99.90
6822;DHT22;3449;48.728;8.968;2022-12-17T01:32:45;-7.50;99.90
6822;DHT22;3449;48.728;8.968;2022-12-17T01:35:29;-7.50;99.90
6822;DHT22;3449;48.728;8.968;2022-12-17T01:38:15;-7.50;99.90
6822;DHT22;3449;48.728;8.968;2022-12-17T01:40:59;-7.50;99.90
6822;DHT22;3449;48.728;8.968;2022-12-17T01:43:46;-7.50;99.90
6822;DHT22;3449;48.728;8.968;2022-12-17T01:46:32;-7.50;99.90
6822;DHT22;3449;48.728;8.968;2022-12-17T01:49:21;-7.60;99.90
6822;DHT22;3449;48.728;8.968;2022-12-17T01:52:06;-7.60;99.90
6822;DHT22;3449;48.728;8.968;2022-12-17T01:54:51;-7.60;99.90
6822;DHT22;3449;48.728;8.968;2022-12-17T01:57:36;-7.70;99.90
6822;DHT22;3449;48.728;8.968;2022-12-17T02:00:22;-7.70;99.90
6822;DHT22;3449;48.728;8.968;2022-12-17T02:03:12;-7.80;99.90
6822;DHT22;3449;48.728;8.968;2022-12-17T02:06:02;-7.80;99.90
6822;DHT22;3449;48.728;8.968;2022-12-17T02:08:51;-7.90;99.90
6822;DHT22;3449;48.728;8.968;2022-12-17T02:11:41;-8.00;99.90
6822;DHT22;3449;48.728;8.968;2022-12-17T02:14:32;-8.00;99.90
6822;DHT22;3449;48.728;8.968;2022-12-17T02:17:22;-8.00;99.90
6822;DHT22;3449;48.728;8.968;2022-12-17T02:20:19;-8.00;99.90
6822;DHT22;3449;48.728;8.968;2022-12-17T02:23:13;-7.90;99.90
6822;DHT22;3449;48.728;8.968;2022-12-17T02:26:04;-7.90;99.90
6822;DHT22;3449;48.728;8.968;2022-12-17T02:28:53;-7.90;99.90
6822;DHT22;3449;48.728;8.968;2022-12-17T02:31:40;-7.90;99.90
6822;DHT22;3449;48.728;8.968;2022-12-17T02:34:26;-8.00;99.90
6822;DHT22;3449;48.728;8.968;2022-12-17T02:37:10;-8.10;99.90
6822;DHT22;3449;48.728;8.968;2022-12-17T02:39:54;-8.10;99.90
6822;DHT22;3449;48.728;8.968;2022-12-17T02:42:39;-8.10;99.90
6822;DHT22;3449;48.728;8.968;2022-12-17T02:45:28;-8.20;99.90
6822;DHT22;3449;48.728;8.968;2022-12-17T02:48:13;-8.20;99.90
6822;DHT22;3449;48.728;8.968;2022-12-17T02:50:57;-8.20;99.90
6822;DHT22;3449;48.728;8.968;2022-12-17T02:53:43;-8.30;99.90
6822;DHT22;3449;48.728;8.968;2022-12-17T02:56:27;-8.20;99.90
6822;DHT22;3449;48.728;8.968;2022-12-17T02:59:12;-8.20;99.90
6822;DHT22;3449;48.728;8.968;2022-12-17T03:01:58;-8.30;99.90
6822;DHT22;3449;48.728;8.968;2022-12-17T03:04:42;-8.20;99.90
6822;DHT22;3449;48.728;8.968;2022-12-17T03:07:27;-8.30;99.90
6822;DHT22;3449;48.728;8.968;2022-12-17T03:10:11;-8.30;99.90
6822;DHT22;3449;48.728;8.968;2022-12-17T03:12:55;-8.30;99.90
6822;DHT22;3449;48.728;8.968;2022-12-17T03:15:39;-8.30;99.90
6822;DHT22;3449;48.728;8.968;2022-12-17T03:18:25;-8.30;99.90
6822;DHT22;3449;48.728;8.968;2022-12-17T03:21:09;-8.30;99.90
6822;DHT22;3449;48.728;8.968;2022-12-17T03:23:53;-8.30;99.90
6822;DHT22;3449;48.728;8.968;2022-12-17T03:26:37;-8.30;99.90
6822;DHT22;3449;48.728;8.968;2022-12-17T03:29:22;-8.40;99.90
6822;DHT22;3449;48.728;8.968;2022-12-17T03:32:06;-8.40;99.90
6822;DHT22;3449;48.728;8.968;2022-12-17T03:34:51;-8.40;99.90
6822;DHT22;3449;48.728;8.968;2022-12-17T03:37:35;-8.40;99.90
6822;DHT22;3449;48.728;8.968;2022-12-17T03:40:19;-8.40;99.90
6822;DHT22;3449;48.728;8.968;2022-12-17T03:43:07;-8.50;99.90
6822;DHT22;3449;48.728;8.968;2022-12-17T03:45:52;-8.50;99.90
6822;DHT22;3449;48.728;8.968;2022-12-17T03:48:36;-8.50;99.90
6822;DHT22;3449;48.728;8.968;2022-12-17T03:51:22;-8.60;99.90
6822;DHT22;3449;48.728;8.968;2022-12-17T03:54:06;-8.60;99.90
6822;DHT22;3449;48.728;8.968;2022-12-17T03:56:51;-8.70;99.90
6822;DHT22;3449;48.728;8.968;2022-12-17T03:59:36;-8.70;99.90
6822;DHT22;3449;48.728;8.968;2022-12-17T04:02:20;-8.80;99.90
6822;DHT22;3449;48.728;8.968;2022-12-17T04:05:04;-8.80;99.90
6822;DHT22;3449;48.728;8.968;2022-12-17T04:07:51;-8.80;99.90
6822;DHT22;3449;48.728;8.968;2022-12-17T04:10:35;-8.80;99.90
6822;DHT22;3449;48.728;8.968;2022-12-17T04:13:19;-8.80;99.90
6822;DHT22;3449;48.728;8.968;2022-12-17T04:16:04;-8.80;99.90
6822;DHT22;3449;48.728;8.968;2022-12-17T04:18:48;-8.80;99.90
6822;DHT22;3449;48.728;8.968;2022-12-17T04:21:32;-8.80;99.90
6822;DHT22;3449;48.728;8.968;2022-12-17T04:24:20;-8.80;99.90
6822;DHT22;3449;48.728;8.968;2022-12-17T04:27:04;-8.90;99.90
6822;DHT22;3449;48.728;8.968;2022-12-17T04:29:49;-8.80;99.90
6822;DHT22;3449;48.728;8.968;2022-12-17T04:32:33;-8.80;99.90
6822;DHT22;3449;48.728;8.968;2022-12-17T04:35:17;-8.80;99.90
6822;DHT22;3449;48.728;8.968;2022-12-17T04:38:01;-8.80;99.90
6822;DHT22;3449;48.728;8.968;2022-12-17T04:40:52;-8.90;99.90
6822;DHT22;3449;48.728;8.968;2022-12-17T04:43:36;-8.80;99.90
6822;DHT22;3449;48.728;8.968;2022-12-17T04:46:21;-8.80;99.90
6822;DHT22;3449;48.728;8.968;2022-12-17T04:49:05;-8.90;99.90
6822;DHT22;3449;48.728;8.968;2022-12-17T04:51:49;-8.90;99.90
6822;DHT22;3449;48.728;8.968;2022-12-17T04:54:34;-8.90;99.90
6822;DHT22;3449;48.728;8.968;2022-12-17T04:57:19;-8.90;99.90
6822;DHT22;3449;48.728;8.968;2022-12-17T05:00:04;-8.90;99.90
6822;DHT22;3449;48.728;8.968;2022-12-17T05:02:48;-9.00;99.90
6822;DHT22;3449;48.728;8.968;2022-12-17T05:05:33;-9.00;99.90
6822;DHT22;3449;48.728;8.968;2022-12-17T05:08:17;-9.00;99.90
6822;DHT22;3449;48.728;8.968;2022-12-17T05:11:02;-9.10;99.90
6822;DHT22;3449;48.728;8.968;2022-12-17T05:13:47;-9.10;99.90
6822;DHT22;3449;48.728;8.968;2022-12-17T05:16:32;-9.10;99.90
6822;DHT22;3449;48.728;8.968;2022-12-17T05:19:16;-9.20;99.90
6822;DHT22;3449;48.728;8.968;2022-12-17T05:22:00;-9.30;99.90
6822;DHT22;3449;48.728;8.968;2022-12-17T05:24:44;-9.40;99.90
6822;DHT22;3449;48.728;8.968;2022-12-17T05:27:28;-9.50;99.90
6822;DHT22;3449;48.728;8.968;2022-12-17T05:30:14;-9.50;99.90
6822;DHT22;3449;48.728;8.968;2022-12-17T05:32:59;-9.60;99.90
6822;DHT22;3449;48.728;8.968;2022-12-17T05:35:44;-9.70;99.90
6822;DHT22;3449;48.728;8.968;2022-12-17T05:38:28;-9.70;99.90
6822;DHT22;3449;48.728;8.968;2022-12-17T05:41:13;-9.70;99.90
6822;DHT22;3449;48.728;8.968;2022-12-17T05:43:57;-9.80;99.90
6822;DHT22;3449;48.728;8.968;2022-12-17T05:46:43;-9.80;99.90
6822;DHT22;3449;48.728;8.968;2022-12-17T05:49:27;-9.90;99.90
6822;DHT22;3449;48.728;8.968;2022-12-17T05:52:11;-9.90;99.90
6822;DHT22;3449;48.728;8.968;2022-12-17T05:54:55;-9.90;99.90
6822;DHT22;3449;48.728;8.968;2022-12-17T05:57:45;-9.90;99.90
6822;DHT22;3449;48.728;8.968;2022-12-17T06:00:29;-9.90;99.90
6822;DHT22;3449;48.728;8.968;2022-12-17T06:03:15;-9.90;99.90
6822;DHT22;3449;48.728;8.968;2022-12-17T06:05:59;-9.90;99.90
6822;DHT22;3449;48.728;8.968;2022-12-17T06:08:43;-9.90;99.90
6822;DHT22;3449;48.728;8.968;2022-12-17T06:11:27;-10.00;99.90
6822;DHT22;3449;48.728;8.968;2022-12-17T06:14:11;-10.00;99.90
6822;DHT22;3449;48.728;8.968;2022-12-17T06:16:56;-10.00;99.90
6822;DHT22;3449;48.728;8.968;2022-12-17T06:19:47;-10.10;99.90
6822;DHT22;3449;48.728;8.968;2022-12-17T06:22:45;-10.10;99.90
6822;DHT22;3449;48.728;8.968;2022-12-17T06:25:30;-10.10;99.90
6822;DHT22;3449;48.728;8.968;2022-12-17T06:28:14;-10.10;99.90
6822;DHT22;3449;48.728;8.968;2022-12-17T06:30:58;-10.10;99.90
6822;DHT22;3449;48.728;8.968;2022-12-17T06:33:42;-10.10;99.90
6822;DHT22;3449;48.728;8.968;2022-12-17T06:36:28;-10.00;99.90
6822;DHT22;3449;48.728;8.968;2022-12-17T06:39:12;-10.00;99.90
6822;DHT22;3449;48.728;8.968;2022-12-17T06:41:57;-9.90;99.90
6822;DHT22;3449;48.728;8.968;2022-12-17T06:44:41;-9.80;99.90
6822;DHT22;3449;48.728;8.968;2022-12-17T06:47:25;-9.70;99.90
6822;DHT22;3449;48.728;8.968;2022-12-17T06:50:09;-9.60;99.90
6822;DHT22;3449;48.728;8.968;2022-12-17T06:53:02;-9.60;99.90
6822;DHT22;3449;48.728;8.968;2022-12-17T06:55:47;-9.50;99.90
6822;DHT22;3449;48.728;8.968;2022-12-17T06:58:31;-9.40;99.90
6822;DHT22;3449;48.728;8.968;2022-12-17T07:01:15;-9.40;99.90
6822;DHT22;3449;48.728;8.968;2022-12-17T07:03:59;-9.30;99.90
6822;DHT22;3449;48.728;8.968;2022-12-17T07:06:44;-9.30;99.90
6822;DHT22;3449;48.728;8.968;2022-12-17T07:09:29;-9.20;99.90
6822;DHT22;3449;48.728;8.968;2022-12-17T07:12:13;-9.20;99.90
6822;DHT22;3449;48.728;8.968;2022-12-17T07:14:59;-9.10;99.90
6822;DHT22;3449;48.728;8.968;2022-12-17T07:17:53;-9.00;99.90
6822;DHT22;3449;48.728;8.968;2022-12-17T07:20:38;-9.00;99.90
6822;DHT22;3449;48.728;8.968;2022-12-17T07:23:22;-8.90;99.90
6822;DHT22;3449;48.728;8.968;2022-12-17T07:26:08;-8.90;99.90
6822;DHT22;3449;48.728;8.968;2022-12-17T07:28:58;-8.80;99.90
6822;DHT22;3449;48.728;8.968;2022-12-17T07:31:42;-8.70;99.90
6822;DHT22;3449;48.728;8.968;2022-12-17T07:34:28;-8.70;99.90
6822;DHT22;3449;48.728;8.968;2022-12-17T07:37:13;-8.60;99.90
6822;DHT22;3449;48.728;8.968;2022-12-17T07:39:57;-8.50;99.90
6822;DHT22;3449;48.728;8.968;2022-12-17T07:42:43;-8.50;99.90
6822;DHT22;3449;48.728;8.968;2022-12-17T07:45:27;-8.40;99.90
6822;DHT22;3449;48.728;8.968;2022-12-17T07:48:11;-8.30;99.90
6822;DHT22;3449;48.728;8.968;2022-12-17T07:50:56;-8.30;99.90
6822;DHT22;3449;48.728;8.968;2022-12-17T07:53:46;-8.30;99.90
6822;DHT22;3449;48.728;8.968;2022-12-17T07:56:30;-8.20;99.90
6822;DHT22;3449;48.728;8.968;2022-12-17T07:59:16;-8.20;99.90
6822;DHT22;3449;48.728;8.968;2022-12-17T08:02:00;-8.10;99.90
6822;DHT22;3449;48.728;8.968;2022-12-17T08:04:44;-8.10;99.90
6822;DHT22;3449;48.728;8.968;2022-12-17T08:07:29;-8.00;99.90
6822;DHT22;3449;48.728;8.968;2022-12-17T08:10:13;-7.90;99.90
6822;DHT22;3449;48.728;8.968;2022-12-17T08:12:59;-7.90;99.90
6822;DHT22;3449;48.728;8.968;2022-12-17T08:15:45;-7.90;99.90
6822;DHT22;3449;48.728;8.968;2022-12-17T08:18:30;-7.80;99.90
6822;DHT22;3449;48.728;8.968;2022-12-17T08:21:11;-7.80;99.90
6822;DHT22;3449;48.728;8.968;2022-12-17T08:23:55;-7.70;99.90
6822;DHT22;3449;48.728;8.968;2022-12-17T08:26:39;-7.70;99.90
6822;DHT22;3449;48.728;8.968;2022-12-17T08:29:29;-7.60;99.90
6822;DHT22;3449;48.728;8.968;2022-12-17T08:32:15;-7.60;99.90
6822;DHT22;3449;48.728;8.968;2022-12-17T08:34:59;-7.60;99.90
6822;DHT22;3449;48.728;8.968;2022-12-17T08:37:43;-7.60;99.90
6822;DHT22;3449;48.728;8.968;2022-12-17T08:40:27;-7.50;99.90
6822;DHT22;3449;48.728;8.968;2022-12-17T08:43:12;-7.50;99.90
6822;DHT22;3449;48.728;8.968;2022-12-17T08:45:56;-7.40;99.90
6822;DHT22;3449;48.728;8.968;2022-12-17T08:48:42;-7.40;99.90
6822;DHT22;3449;48.728;8.968;2022-12-17T08:51:27;-7.40;99.90
6822;DHT22;3449;48.728;8.968;2022-12-17T08:54:11;-7.40;99.90
6822;DHT22;3449;48.728;8.968;2022-12-17T08:56:55;-7.30;99.90
6822;DHT22;3449;48.728;8.968;2022-12-17T08:59:40;-7.20;99.90
6822;DHT22;3449;48.728;8.968;2022-12-17T09:02:24;-7.20;99.90
6822;DHT22;3449;48.728;8.968;2022-12-17T09:05:10;-7.10;99.90
6822;DHT22;3449;48.728;8.968;2022-12-17T09:07:58;-7.10;99.90
6822;DHT22;3449;48.728;8.968;2022-12-17T09:10:42;-7.20;99.90
6822;DHT22;3449;48.728;8.968;2022-12-17T09:13:26;-7.10;99.90
6822;DHT22;3449;48.728;8.968;2022-12-17T09:16:11;-7.10;99.90
6822;DHT22;3449;48.728;8.968;2022-12-17T09:18:55;-7.10;99.90
6822;DHT22;3449;48.728;8.968;2022-12-17T09:21:41;-7.00;99.90
6822;DHT22;3449;48.728;8.968;2022-12-17T09:24:25;-6.90;99.90
6822;DHT22;3449;48.728;8.968;2022-12-17T09:27:09;-6.90;99.90
6822;DHT22;3449;48.728;8.968;2022-12-17T09:29:54;-6.80;99.90
6822;DHT22;3449;48.728;8.968;2022-12-17T09:32:38;-6.70;99.90
6822;DHT22;3449;48.728;8.968;2022-12-17T09:35:23;-6.80;99.90
6822;DHT22;3449;48.728;8.968;2022-12-17T09:38:05;-6.80;99.90
6822;DHT22;3449;48.728;8.968;2022-12-17T09:40:50;-6.90;99.90
6822;DHT22;3449;48.728;8.968;2022-12-17T09:43:41;-6.90;99.90
6822;DHT22;3449;48.728;8.968;2022-12-17T09:46:33;-6.80;99.90
6822;DHT22;3449;48.728;8.968;2022-12-17T09:49:21;-6.80;99.90
6822;DHT22;3449;48.728;8.968;2022-12-17T09:52:18;-6.90;99.90
6822;DHT22;3449;48.728;8.968;2022-12-17T09:55:16;-7.00;99.90
6822;DHT22;3449;48.728;8.968;2022-12-17T09:58:02;-6.90;99.90
6822;DHT22;3449;48.728;8.968;2022-12-17T10:00:47;-6.70;99.90
6822;DHT22;3449;48.728;8.968;2022-12-17T10:03:34;-6.60;99.90
6822;DHT22;3449;48.728;8.968;2022-12-17T10:06:21;-6.50;99.90
6822;DHT22;3449;48.728;8.968;2022-12-17T10:09:12;-6.50;99.90
6822;DHT22;3449;48.728;8.968;2022-12-17T10:12:02;-6.40;99.90
6822;DHT22;3449;48.728;8.968;2022-12-17T10:14:51;-6.40;99.90
6822;DHT22;3449;48.728;8.968;2022-12-17T10:17:35;-6.50;99.90
6822;DHT22;3449;48.728;8.968;2022-12-17T10:20:22;-6.40;99.90
6822;DHT22;3449;48.728;8.968;2022-12-17T10:23:07;-6.20;99.90
6822;DHT22;3449;48.728;8.968;2022-12-17T10:25:53;-6.10;99.90
6822;DHT22;3449;48.728;8.968;2022-12-17T10:28:40;-5.90;99.90
6822;DHT22;3449;48.728;8.968;2022-12-17T10:31:35;-6.10;99.90
6822;DHT22;3449;48.728;8.968;2022-12-17T10:34:20;-6.10;99.90
6822;DHT22;3449;48.728;8.968;2022-12-17T10:37:05;-6.00;99.90
6822;DHT22;3449;48.728;8.968;2022-12-17T10:40:02;-5.90;99.90
6822;DHT22;3449;48.728;8.968;2022-12-17T10:42:50;-5.90;99.90
6822;DHT22;3449;48.728;8.968;2022-12-17T10:45:35;-5.80;99.90
6822;DHT22;3449;48.728;8.968;2022-12-17T10:48:22;-5.70;99.90
6822;DHT22;3449;48.728;8.968;2022-12-17T10:51:18;-5.60;99.90
6822;DHT22;3449;48.728;8.968;2022-12-17T10:54:09;-5.70;99.90
6822;DHT22;3449;48.728;8.968;2022-12-17T10:56:59;-5.50;99.90
6822;DHT22;3449;48.728;8.968;2022-12-17T10:59:44;-5.30;99.90
6822;DHT22;3449;48.728;8.968;2022-12-17T11:02:30;-5.30;99.90
6822;DHT22;3449;48.728;8.968;2022-12-17T11:05:24;-5.10;99.90
6822;DHT22;3449;48.728;8.968;2022-12-17T11:08:11;-4.90;99.90
6822;DHT22;3449;48.728;8.968;2022-12-17T11:10:56;-5.00;99.90
6822;DHT22;3449;48.728;8.968;2022-12-17T11:13:44;-5.00;99.90
6822;DHT22;3449;48.728;8.968;2022-12-17T11:16:33;-5.00;99.90
6822;DHT22;3449;48.728;8.968;2022-12-17T11:19:33;-4.80;99.90
6822;DHT22;3449;48.728;8.968;2022-12-17T11:22:24;-4.80;99.90
6822;DHT22;3449;48.728;8.968;2022-12-17T11:25:22;-4.50;99.90
6822;DHT22;3449;48.728;8.968;2022-12-17T11:28:14;-4.30;99.90
6822;DHT22;3449;48.728;8.968;2022-12-17T11:31:09;-4.30;99.90
6822;DHT22;3449;48.728;8.968;2022-12-17T11:34:04;-4.00;99.90
6822;DHT22;3449;48.728;8.968;2022-12-17T11:37:00;-3.70;99.90
6822;DHT22;3449;48.728;8.968;2022-12-17T11:39:54;-3.50;99.90
6822;DHT22;3449;48.728;8.968;2022-12-17T11:42:45;-3.00;99.90
6822;DHT22;3449;48.728;8.968;2022-12-17T11:45:38;-2.70;99.90
6822;DHT22;3449;48.728;8.968;2022-12-17T11:48:30;-2.60;99.90
6822;DHT22;3449;48.728;8.968;2022-12-17T11:51:22;-2.40;99.90
6822;DHT22;3449;48.728;8.968;2022-12-17T11:54:15;-2.00;99.90
6822;DHT22;3449;48.728;8.968;2022-12-17T11:57:16;-1.90;99.90
6822;DHT22;3449;48.728;8.968;2022-12-17T12:00:11;-1.50;99.90
6822;DHT22;3449;48.728;8.968;2022-12-17T12:03:07;-1.10;99.90
6822;DHT22;3449;48.728;8.968;2022-12-17T12:05:57;-0.90;99.90
6822;DHT22;3449;48.728;8.968;2022-12-17T12:08:59;-0.40;99.90
6822;DHT22;3449;48.728;8.968;2022-12-17T12:11:54;-0.20;99.90
6822;DHT22;3449;48.728;8.968;2022-12-17T12:14:47;0.60;99.90
6822;DHT22;3449;48.728;8.968;2022-12-17T12:17:40;0.90;99.90
6822;DHT22;3449;48.728;8.968;2022-12-17T12:20:39;0.60;99.90
6822;DHT22;3449;48.728;8.968;2022-12-17T12:23:34;0.70;99.90
6822;DHT22;3449;48.728;8.968;2022-12-17T12:26:26;0.40;99.90
6822;DHT22;3449;48.728;8.968;2022-12-17T12:29:19;1.10;99.90
6822;DHT22;3449;48.728;8.968;2022-12-17T12:32:13;1.60;99.90
6822;DHT22;3449;48.728;8.968;2022-12-17T12:35:03;2.10;99.90
6822;DHT22;3449;48.728;8.968;2022-12-17T12:37:47;2.30;99.90
6822;DHT22;3449;48.728;8.968;2022-12-17T12:40:38;2.80;99.90
6822;DHT22;3449;48.728;8.968;2022-12-17T12:43:26;2.90;99.90
6822;DHT22;3449;48.728;8.968;2022-12-17T12:46:16;3.10;99.90
6822;DHT22;3449;48.728;8.968;2022-12-17T12:49:07;3.40;99.90
6822;DHT22;3449;48.728;8.968;2022-12-17T12:51:55;3.40;99.90
6822;DHT22;3449;48.728;8.968;2022-12-17T12:54:51;3.10;99.90
6822;DHT22;3449;48.728;8.968;2022-12-17T12:57:39;3.30;99.90
6822;DHT22;3449;48.728;8.968;2022-12-17T13:00:27;3.30;99.90
6822;DHT22;3449;48.728;8.968;2022-12-17T13:03:23;2.90;99.90
6822;DHT22;3449;48.728;8.968;2022-12-17T13:06:09;2.90;99.90
6822;DHT22;3449;48.728;8.968;2022-12-17T13:08:36;2.70;99.90
6822;DHT22;3449;48.728;8.968;2022-12-17T13:11:27;2.20;99.90
6822;DHT22;3449;48.728;8.968;2022-12-17T13:13:59;1.80;99.90
6822;DHT22;3449;48.728;8.968;2022-12-17T13:16:36;1.80;99.90
6822;DHT22;3449;48.728;8.968;2022-12-17T13:19:19;1.50;99.90
6822;DHT22;3449;48.728;8.968;2022-12-17T13:21:46;1.00;99.90
6822;DHT22;3449;48.728;8.968;2022-12-17T13:24:23;0.60;99.90
6822;DHT22;3449;48.728;8.968;2022-12-17T13:26:50;0.10;99.90
6822;DHT22;3449;48.728;8.968;2022-12-17T13:29:22;-0.30;99.90
6822;DHT22;3449;48.728;8.968;2022-12-17T13:32:02;-0.50;99.90
6822;DHT22;3449;48.728;8.968;2022-12-17T13:34:44;-0.70;99.90
6822;DHT22;3449;48.728;8.968;2022-12-17T13:37:18;-0.80;99.90
6822;DHT22;3449;48.728;8.968;2022-12-17T13:39:52;-1.00;99.90
6822;DHT22;3449;48.728;8.968;2022-12-17T13:42:26;-1.10;99.90
6822;DHT22;3449;48.728;8.968;2022-12-17T13:44:54;-1.20;99.90
6822;DHT22;3449;48.728;8.968;2022-12-17T13:47:23;-1.40;99.90
6822;DHT22;3449;48.728;8.968;2022-12-17T13:49:53;-1.60;99.90
6822;DHT22;3449;48.728;8.968;2022-12-17T13:52:23;-1.80;99.90
6822;DHT22;3449;48.728;8.968;2022-12-17T13:54:50;-1.90;99.90
6822;DHT22;3449;48.728;8.968;2022-12-17T13:57:20;-2.10;99.90
6822;DHT22;3449;48.728;8.968;2022-12-17T13:59:51;-2.20;99.90
6822;DHT22;3449;48.728;8.968;2022-12-17T14:02:25;-2.30;99.90
6822;DHT22;3449;48.728;8.968;2022-12-17T14:04:55;-2.40;99.90
6822;DHT22;3449;48.728;8.968;2022-12-17T14:07:22;-2.50;99.90
6822;DHT22;3449;48.728;8.968;2022-12-17T14:09:50;-2.50;99.90
6822;DHT22;3449;48.728;8.968;2022-12-17T14:12:19;-2.50;99.90
6822;DHT22;3449;48.728;8.968;2022-12-17T14:14:51;-2.70;99.90
6822;DHT22;3449;48.728;8.968;2022-12-17T14:17:20;-2.70;99.90
6822;DHT22;3449;48.728;8.968;2022-12-17T14:19:51;-2.90;99.90
6822;DHT22;3449;48.728;8.968;2022-12-17T14:22:25;-2.90;99.90
6822;DHT22;3449;48.728;8.968;2022-12-17T14:24:53;-3.00;99.90
6822;DHT22;3449;48.728;8.968;2022-12-17T14:27:24;-3.10;99.90
6822;DHT22;3449;48.728;8.968;2022-12-17T14:29:51;-3.10;99.90
6822;DHT22;3449;48.728;8.968;2022-12-17T14:32:24;-3.30;99.90
6822;DHT22;3449;48.728;8.968;2022-12-17T14:34:51;-3.40;99.90
6822;DHT22;3449;48.728;8.968;2022-12-17T14:37:22;-3.50;99.90
6822;DHT22;3449;48.728;8.968;2022-12-17T14:39:50;-3.60;99.90
6822;DHT22;3449;48.728;8.968;2022-12-17T14:42:20;-3.60;99.90
6822;DHT22;3449;48.728;8.968;2022-12-17T14:44:56;-3.60;99.90
6822;DHT22;3449;48.728;8.968;2022-12-17T14:47:25;-3.80;99.90
6822;DHT22;3449;48.728;8.968;2022-12-17T14:49:55;-3.90;99.90
6822;DHT22;3449;48.728;8.968;2022-12-17T14:52:31;-4.00;99.90
6822;DHT22;3449;48.728;8.968;2022-12-17T14:54:59;-4.00;99.90
6822;DHT22;3449;48.728;8.968;2022-12-17T14:57:26;-4.10;99.90
6822;DHT22;3449;48.728;8.968;2022-12-17T14:59:52;-4.20;99.90
6822;DHT22;3449;48.728;8.968;2022-12-17T15:02:22;-4.30;99.90
6822;DHT22;3449;48.728;8.968;2022-12-17T15:04:51;-4.40;99.90
6822;DHT22;3449;48.728;8.968;2022-12-17T15:07:22;-4.40;99.90
6822;DHT22;3449;48.728;8.968;2022-12-17T15:09:51;-4.50;99.90
6822;DHT22;3449;48.728;8.968;2022-12-17T15:12:19;-4.60;99.90
6822;DHT22;3449;48.728;8.968;2022-12-17T15:14:46;-4.70;99.90
6822;DHT22;3449;48.728;8.968;2022-12-17T15:17:13;-4.90;99.90
6822;DHT22;3449;48.728;8.968;2022-12-17T15:19:40;-4.90;99.90
6822;DHT22;3449;48.728;8.968;2022-12-17T15:22:13;-5.00;99.90
6822;DHT22;3449;48.728;8.968;2022-12-17T15:24:40;-5.10;99.90
6822;DHT22;3449;48.728;8.968;2022-12-17T15:27:11;-5.10;99.90
6822;DHT22;3449;48.728;8.968;2022-12-17T15:29:38;-5.10;99.90
6822;DHT22;3449;48.728;8.968;2022-12-17T15:32:05;-5.20;99.90
6822;DHT22;3449;48.728;8.968;2022-12-17T15:34:32;-5.20;99.90
6822;DHT22;3449;48.728;8.968;2022-12-17T15:36:58;-5.30;99.90
6822;DHT22;3449;48.728;8.968;2022-12-17T15:39:25;-5.40;99.90
6822;DHT22;3449;48.728;8.968;2022-12-17T15:41:52;-5.50;99.90
6822;DHT22;3449;48.728;8.968;2022-12-17T15:44:38;-5.50;99.90
6822;DHT22;3449;48.728;8.968;2022-12-17T15:47:05;-5.60;99.90
6822;DHT22;3449;48.728;8.968;2022-12-17T15:49:32;-5.60;99.90
6822;DHT22;3449;48.728;8.968;2022-12-17T15:51:58;-5.80;99.90
6822;DHT22;3449;48.728;8.968;2022-12-17T15:54:25;-5.80;99.90
6822;DHT22;3449;48.728;8.968;2022-12-17T15:56:53;-5.90;99.90
6822;DHT22;3449;48.728;8.968;2022-12-17T15:59:20;-6.00;99.90
6822;DHT22;3449;48.728;8.968;2022-12-17T16:01:49;-6.10;99.90
6822;DHT22;3449;48.728;8.968;2022-12-17T16:04:16;-6.20;99.90
6822;DHT22;3449;48.728;8.968;2022-12-17T16:06:42;-6.30;99.90
6822;DHT22;3449;48.728;8.968;2022-12-17T16:09:09;-6.50;99.90
6822;DHT22;3449;48.728;8.968;2022-12-17T16:11:36;-6.50;99.90
6822;DHT22;3449;48.728;8.968;2022-12-17T16:14:03;-6.60;99.90
6822;DHT22;3449;48.728;8.968;2022-12-17T16:16:30;-6.80;99.90
6822;DHT22;3449;48.728;8.968;2022-12-17T16:18:58;-6.80;99.90
6822;DHT22;3449;48.728;8.968;2022-12-17T16:21:27;-6.90;99.90
6822;DHT22;3449;48.728;8.968;2022-12-17T16:23:54;-6.90;99.90
6822;DHT22;3449;48.728;8.968;2022-12-17T16:26:20;-7.00;99.90
6822;DHT22;3449;48.728;8.968;2022-12-17T16:28:47;-7.10;99.90
6822;DHT22;3449;48.728;8.968;2022-12-17T16:31:15;-7.10;99.90
6822;DHT22;3449;48.728;8.968;2022-12-17T16:33:42;-7.20;99.90
6822;DHT22;3449;48.728;8.968;2022-12-17T16:36:15;-7.30;99.90
6822;DHT22;3449;48.728;8.968;2022-12-17T16:38:43;-7.40;99.90
6822;DHT22;3449;48.728;8.968;2022-12-17T16:41:11;-7.50;99.90
6822;DHT22;3449;48.728;8.968;2022-12-17T16:43:38;-7.50;99.90
6822;DHT22;3449;48.728;8.968;2022-12-17T16:46:23;-7.60;99.90
6822;DHT22;3449;48.728;8.968;2022-12-17T16:48:51;-7.60;99.90
6822;DHT22;3449;48.728;8.968;2022-12-17T16:51:20;-7.60;99.90
6822;DHT22;3449;48.728;8.968;2022-12-17T16:53:48;-7.70;99.90
6822;DHT22;3449;48.728;8.968;2022-12-17T16:56:15;-7.70;99.90
6822;DHT22;3449;48.728;8.968;2022-12-17T16:58:42;-7.80;99.90
6822;DHT22;3449;48.728;8.968;2022-12-17T17:01:09;-7.90;99.90
6822;DHT22;3449;48.728;8.968;2022-12-17T17:03:40;-8.10;99.90
6822;DHT22;3449;48.728;8.968;2022-12-17T17:06:07;-8.10;99.90
6822;DHT22;3449;48.728;8.968;2022-12-17T17:08:36;-8.20;99.90
6822;DHT22;3449;48.728;8.968;2022-12-17T17:11:06;-8.30;99.90
6822;DHT22;3449;48.728;8.968;2022-12-17T17:13:34;-8.30;99.90
6822;DHT22;3449;48.728;8.968;2022-12-17T17:16:00;-8.30;99.90
6822;DHT22;3449;48.728;8.968;2022-12-17T17:18:27;-8.40;99.90
6822;DHT22;3449;48.728;8.968;2022-12-17T17:21:04;-8.40;99.90
6822;DHT22;3449;48.728;8.968;2022-12-17T17:23:38;-8.40;99.90
6822;DHT22;3449;48.728;8.968;2022-12-17T17:26:06;-8.40;99.90
6822;DHT22;3449;48.728;8.968;2022-12-17T17:28:32;-8.40;99.90
6822;DHT22;3449;48.728;8.968;2022-12-17T17:31:00;-8.40;99.90
6822;DHT22;3449;48.728;8.968;2022-12-17T17:33:28;-8.50;99.90
6822;DHT22;3449;48.728;8.968;2022-12-17T17:36:02;-8.50;99.90
6822;DHT22;3449;48.728;8.968;2022-12-17T17:38:31;-8.60;99.90